sensor_id;sensor_type;location;lat;lon;timestamp;P1;durP1;ratioP1;P2;durP2;ratioP2
7929;SDS011;4010;42.698;23.124;2023-07-02T00:00:08;9.83;;;6.30;;
7929;SDS011;4010;42.698;23.124;2023-07-02T00:02:36;8.50;;;6.73;;
7929;SDS011;4010;42.698;23.124;2023-07-02T00:05:03;8.23;;;6.57;;
7929;SDS011;4010;42.698;23.124;2023-07-02T00:07:31;8.20;;;6.50;;
7929;SDS011;4010;42.698;23.124;2023-07-02T00:09:58;8.47;;;6.80;;
7929;SDS011;4010;42.698;23.124;2023-07-02T00:12:24;8.13;;;6.70;;
7929;SDS011;4010;42.698;23.124;2023-07-02T00:14:51;9.97;;;6.70;;
7929;SDS011;4010;42.698;23.124;2023-07-02T00:17:19;7.80;;;6.07;;
7929;SDS011;4010;42.698;23.124;2023-07-02T00:19:46;9.13;;;6.33;;
7929;SDS011;4010;42.698;23.124;2023-07-02T00:22:16;8.97;;;6.87;;
7929;SDS011;4010;42.698;23.124;2023-07-02T00:24:43;10.00;;;6.43;;
7929;SDS011;4010;42.698;23.124;2023-07-02T00:27:10;9.93;;;6.67;;
7929;SDS011;4010;42.698;23.124;2023-07-02T00:29:36;9.67;;;6.60;;
7929;SDS011;4010;42.698;23.124;2023-07-02T00:32:03;7.60;;;6.43;;
7929;SDS011;4010;42.698;23.124;2023-07-02T00:34:32;9.47;;;6.73;;
7929;SDS011;4010;42.698;23.124;2023-07-02T00:36:59;10.43;;;7.70;;
7929;SDS011;4010;42.698;23.124;2023-07-02T00:39:26;9.20;;;7.17;;
7929;SDS011;4010;42.698;23.124;2023-07-02T00:41:52;12.00;;;7.87;;
7929;SDS011;4010;42.698;23.124;2023-07-02T00:44:19;10.73;;;8.07;;
7929;SDS011;4010;42.698;23.124;2023-07-02T00:46:46;9.57;;;7.53;;
7929;SDS011;4010;42.698;23.124;2023-07-02T00:49:12;13.73;;;7.67;;
7929;SDS011;4010;42.698;23.124;2023-07-02T00:51:41;10.90;;;7.77;;
7929;SDS011;4010;42.698;23.124;2023-07-02T00:54:07;9.03;;;7.20;;
7929;SDS011;4010;42.698;23.124;2023-07-02T00:56:34;10.17;;;7.87;;
7929;SDS011;4010;42.698;23.124;2023-07-02T00:59:01;10.10;;;7.53;;
7929;SDS011;4010;42.698;23.124;2023-07-02T01:01:28;11.70;;;7.93;;
7929;SDS011;4010;42.698;23.124;2023-07-02T01:03:56;11.23;;;7.50;;
7929;SDS011;4010;42.698;23.124;2023-07-02T01:06:25;12.17;;;7.80;;
7929;SDS011;4010;42.698;23.124;2023-07-02T01:08:55;9.93;;;8.07;;
7929;SDS011;4010;42.698;23.124;2023-07-02T01:11:24;11.93;;;7.73;;
7929;SDS011;4010;42.698;23.124;2023-07-02T01:13:53;12.23;;;7.70;;
7929;SDS011;4010;42.698;23.124;2023-07-02T01:16:24;11.77;;;9.37;;
7929;SDS011;4010;42.698;23.124;2023-07-02T01:18:51;15.77;;;10.40;;
7929;SDS011;4010;42.698;23.124;2023-07-02T01:21:21;16.27;;;9.77;;
7929;SDS011;4010;42.698;23.124;2023-07-02T01:23:49;14.40;;;10.53;;
7929;SDS011;4010;42.698;23.124;2023-07-02T01:26:16;12.67;;;9.10;;
7929;SDS011;4010;42.698;23.124;2023-07-02T01:28:43;17.00;;;9.27;;
7929;SDS011;4010;42.698;23.124;2023-07-02T01:31:10;15.27;;;9.37;;
7929;SDS011;4010;42.698;23.124;2023-07-02T01:33:37;12.30;;;9.00;;
7929;SDS011;4010;42.698;23.124;2023-07-02T01:36:04;11.90;;;8.60;;
7929;SDS011;4010;42.698;23.124;2023-07-02T01:38:32;12.20;;;9.03;;
7929;SDS011;4010;42.698;23.124;2023-07-02T01:40:59;11.83;;;9.43;;
7929;SDS011;4010;42.698;23.124;2023-07-02T01:43:26;12.20;;;9.30;;
7929;SDS011;4010;42.698;23.124;2023-07-02T01:45:52;12.10;;;9.07;;
7929;SDS011;4010;42.698;23.124;2023-07-02T01:48:20;9.43;;;8.17;;
7929;SDS011;4010;42.698;23.124;2023-07-02T01:50:47;10.13;;;8.33;;
7929;SDS011;4010;42.698;23.124;2023-07-02T01:53:14;10.03;;;8.60;;
7929;SDS011;4010;42.698;23.124;2023-07-02T01:55:42;13.03;;;9.07;;
7929;SDS011;4010;42.698;23.124;2023-07-02T01:58:08;11.37;;;8.77;;
7929;SDS011;4010;42.698;23.124;2023-07-02T02:00:35;9.60;;;8.60;;
7929;SDS011;4010;42.698;23.124;2023-07-02T02:03:02;11.07;;;8.70;;
7929;SDS011;4010;42.698;23.124;2023-07-02T02:05:30;10.43;;;8.43;;
7929;SDS011;4010;42.698;23.124;2023-07-02T02:07:57;9.47;;;8.47;;
7929;SDS011;4010;42.698;23.124;2023-07-02T02:10:24;10.27;;;8.57;;
7929;SDS011;4010;42.698;23.124;2023-07-02T02:12:52;12.43;;;8.27;;
7929;SDS011;4010;42.698;23.124;2023-07-02T02:15:18;16.73;;;8.83;;
7929;SDS011;4010;42.698;23.124;2023-07-02T02:17:45;12.83;;;8.43;;
7929;SDS011;4010;42.698;23.124;2023-07-02T02:20:12;9.40;;;8.40;;
7929;SDS011;4010;42.698;23.124;2023-07-02T02:22:39;10.17;;;8.13;;
7929;SDS011;4010;42.698;23.124;2023-07-02T02:25:06;10.73;;;8.23;;
7929;SDS011;4010;42.698;23.124;2023-07-02T02:27:33;10.80;;;9.13;;
7929;SDS011;4010;42.698;23.124;2023-07-02T02:30:01;9.70;;;8.70;;
7929;SDS011;4010;42.698;23.124;2023-07-02T02:32:28;9.83;;;8.93;;
7929;SDS011;4010;42.698;23.124;2023-07-02T02:34:55;10.00;;;7.43;;
7929;SDS011;4010;42.698;23.124;2023-07-02T02:37:21;7.83;;;6.83;;
7929;SDS011;4010;42.698;23.124;2023-07-02T02:39:48;7.27;;;5.07;;
7929;SDS011;4010;42.698;23.124;2023-07-02T02:42:15;4.90;;;4.40;;
7929;SDS011;4010;42.698;23.124;2023-07-02T02:44:42;5.70;;;4.43;;
7929;SDS011;4010;42.698;23.124;2023-07-02T02:47:10;5.13;;;4.43;;
7929;SDS011;4010;42.698;23.124;2023-07-02T02:49:37;4.10;;;3.70;;
7929;SDS011;4010;42.698;23.124;2023-07-02T02:52:04;4.47;;;3.70;;
7929;SDS011;4010;42.698;23.124;2023-07-02T02:54:31;5.63;;;4.00;;
7929;SDS011;4010;42.698;23.124;2023-07-02T02:56:58;5.20;;;3.80;;
7929;SDS011;4010;42.698;23.124;2023-07-02T02:59:24;7.47;;;3.97;;
7929;SDS011;4010;42.698;23.124;2023-07-02T03:01:51;7.77;;;3.80;;
7929;SDS011;4010;42.698;23.124;2023-07-02T03:04:19;4.23;;;3.83;;
7929;SDS011;4010;42.698;23.124;2023-07-02T03:06:48;3.97;;;3.47;;
7929;SDS011;4010;42.698;23.124;2023-07-02T03:09:15;3.90;;;3.50;;
7929;SDS011;4010;42.698;23.124;2023-07-02T03:11:42;4.10;;;3.70;;
7929;SDS011;4010;42.698;23.124;2023-07-02T03:14:08;4.37;;;3.83;;
7929;SDS011;4010;42.698;23.124;2023-07-02T03:16:35;4.53;;;4.13;;
7929;SDS011;4010;42.698;23.124;2023-07-02T03:19:02;4.93;;;3.67;;
7929;SDS011;4010;42.698;23.124;2023-07-02T03:21:30;5.07;;;3.70;;
7929;SDS011;4010;42.698;23.124;2023-07-02T03:23:57;5.53;;;3.60;;
7929;SDS011;4010;42.698;23.124;2023-07-02T03:26:24;4.50;;;4.10;;
7929;SDS011;4010;42.698;23.124;2023-07-02T03:28:50;5.63;;;4.20;;
7929;SDS011;4010;42.698;23.124;2023-07-02T03:31:17;4.57;;;4.13;;
7929;SDS011;4010;42.698;23.124;2023-07-02T03:33:44;5.67;;;4.00;;
7929;SDS011;4010;42.698;23.124;2023-07-02T03:36:10;5.20;;;4.13;;
7929;SDS011;4010;42.698;23.124;2023-07-02T03:38:38;4.53;;;4.03;;
7929;SDS011;4010;42.698;23.124;2023-07-02T03:41:05;4.37;;;3.97;;
7929;SDS011;4010;42.698;23.124;2023-07-02T03:43:32;4.37;;;3.97;;
7929;SDS011;4010;42.698;23.124;2023-07-02T03:45:58;8.20;;;6.40;;
7929;SDS011;4010;42.698;23.124;2023-07-02T03:48:25;9.30;;;7.27;;
7929;SDS011;4010;42.698;23.124;2023-07-02T03:50:52;14.40;;;7.57;;
7929;SDS011;4010;42.698;23.124;2023-07-02T03:53:18;9.20;;;7.70;;
7929;SDS011;4010;42.698;23.124;2023-07-02T03:55:46;10.07;;;7.10;;
7929;SDS011;4010;42.698;23.124;2023-07-02T03:58:13;8.93;;;6.93;;
7929;SDS011;4010;42.698;23.124;2023-07-02T04:00:40;8.13;;;6.70;;
7929;SDS011;4010;42.698;23.124;2023-07-02T04:03:06;8.43;;;7.27;;
7929;SDS011;4010;42.698;23.124;2023-07-02T04:05:33;10.20;;;7.77;;
7929;SDS011;4010;42.698;23.124;2023-07-02T04:08:00;10.23;;;8.00;;
7929;SDS011;4010;42.698;23.124;2023-07-02T04:10:26;11.10;;;8.57;;
7929;SDS011;4010;42.698;23.124;2023-07-02T04:12:54;10.70;;;8.20;;
7929;SDS011;4010;42.698;23.124;2023-07-02T04:15:21;10.80;;;8.37;;
7929;SDS011;4010;42.698;23.124;2023-07-02T04:17:49;11.67;;;8.67;;
7929;SDS011;4010;42.698;23.124;2023-07-02T04:20:16;10.33;;;8.63;;
7929;SDS011;4010;42.698;23.124;2023-07-02T04:22:44;10.67;;;9.10;;
7929;SDS011;4010;42.698;23.124;2023-07-02T04:25:11;11.53;;;8.50;;
7929;SDS011;4010;42.698;23.124;2023-07-02T04:27:40;10.03;;;9.03;;
7929;SDS011;4010;42.698;23.124;2023-07-02T04:30:09;12.30;;;9.10;;
7929;SDS011;4010;42.698;23.124;2023-07-02T04:32:36;11.67;;;10.00;;
7929;SDS011;4010;42.698;23.124;2023-07-02T04:35:04;9.93;;;8.93;;
7929;SDS011;4010;42.698;23.124;2023-07-02T04:37:32;12.27;;;9.30;;
7929;SDS011;4010;42.698;23.124;2023-07-02T04:39:58;13.47;;;9.57;;
7929;SDS011;4010;42.698;23.124;2023-07-02T04:42:26;13.07;;;9.60;;
7929;SDS011;4010;42.698;23.124;2023-07-02T04:44:53;11.27;;;9.80;;
7929;SDS011;4010;42.698;23.124;2023-07-02T04:47:21;11.17;;;9.73;;
7929;SDS011;4010;42.698;23.124;2023-07-02T04:49:48;11.17;;;9.53;;
7929;SDS011;4010;42.698;23.124;2023-07-02T04:52:15;11.63;;;9.87;;
7929;SDS011;4010;42.698;23.124;2023-07-02T04:54:41;13.13;;;9.27;;
7929;SDS011;4010;42.698;23.124;2023-07-02T04:57:08;11.73;;;8.77;;
7929;SDS011;4010;42.698;23.124;2023-07-02T04:59:34;9.63;;;7.33;;
7929;SDS011;4010;42.698;23.124;2023-07-02T05:02:01;11.93;;;6.80;;
7929;SDS011;4010;42.698;23.124;2023-07-02T05:04:29;8.43;;;5.70;;
7929;SDS011;4010;42.698;23.124;2023-07-02T05:06:56;8.93;;;5.83;;
7929;SDS011;4010;42.698;23.124;2023-07-02T05:09:23;9.53;;;7.43;;
7929;SDS011;4010;42.698;23.124;2023-07-02T05:11:49;9.67;;;6.13;;
7929;SDS011;4010;42.698;23.124;2023-07-02T05:14:16;9.77;;;5.93;;
7929;SDS011;4010;42.698;23.124;2023-07-02T05:16:43;9.83;;;5.90;;
7929;SDS011;4010;42.698;23.124;2023-07-02T05:19:09;7.77;;;5.93;;
7929;SDS011;4010;42.698;23.124;2023-07-02T05:21:37;7.83;;;5.23;;
7929;SDS011;4010;42.698;23.124;2023-07-02T05:24:04;7.77;;;5.73;;
7929;SDS011;4010;42.698;23.124;2023-07-02T05:26:32;8.60;;;5.70;;
7929;SDS011;4010;42.698;23.124;2023-07-02T05:28:59;12.67;;;5.17;;
7929;SDS011;4010;42.698;23.124;2023-07-02T05:31:25;6.00;;;5.07;;
7929;SDS011;4010;42.698;23.124;2023-07-02T05:33:52;7.37;;;5.77;;
7929;SDS011;4010;42.698;23.124;2023-07-02T05:36:19;7.07;;;5.50;;
7929;SDS011;4010;42.698;23.124;2023-07-02T05:38:47;9.07;;;5.40;;
7929;SDS011;4010;42.698;23.124;2023-07-02T05:41:17;9.97;;;6.00;;
7929;SDS011;4010;42.698;23.124;2023-07-02T05:43:44;9.77;;;6.43;;
7929;SDS011;4010;42.698;23.124;2023-07-02T05:46:11;7.37;;;6.17;;
7929;SDS011;4010;42.698;23.124;2023-07-02T05:48:39;10.00;;;6.60;;
7929;SDS011;4010;42.698;23.124;2023-07-02T05:51:06;8.63;;;6.20;;
7929;SDS011;4010;42.698;23.124;2023-07-02T05:53:32;7.90;;;6.47;;
7929;SDS011;4010;42.698;23.124;2023-07-02T05:56:00;10.70;;;6.73;;
7929;SDS011;4010;42.698;23.124;2023-07-02T05:58:27;9.20;;;6.80;;
7929;SDS011;4010;42.698;23.124;2023-07-02T06:00:55;11.47;;;7.20;;
7929;SDS011;4010;42.698;23.124;2023-07-02T06:03:21;7.67;;;6.80;;
7929;SDS011;4010;42.698;23.124;2023-07-02T06:05:48;8.13;;;7.23;;
7929;SDS011;4010;42.698;23.124;2023-07-02T06:08:15;7.40;;;6.80;;
7929;SDS011;4010;42.698;23.124;2023-07-02T06:10:45;7.63;;;6.83;;
7929;SDS011;4010;42.698;23.124;2023-07-02T06:13:14;9.13;;;7.73;;
7929;SDS011;4010;42.698;23.124;2023-07-02T06:15:41;10.33;;;6.57;;
7929;SDS011;4010;42.698;23.124;2023-07-02T06:18:08;8.30;;;6.27;;
7929;SDS011;4010;42.698;23.124;2023-07-02T06:20:35;7.13;;;6.17;;
7929;SDS011;4010;42.698;23.124;2023-07-02T06:23:01;9.20;;;6.23;;
7929;SDS011;4010;42.698;23.124;2023-07-02T06:25:28;9.40;;;6.50;;
7929;SDS011;4010;42.698;23.124;2023-07-02T06:27:55;7.03;;;6.23;;
7929;SDS011;4010;42.698;23.124;2023-07-02T06:30:24;7.00;;;6.30;;
7929;SDS011;4010;42.698;23.124;2023-07-02T06:32:51;7.83;;;6.57;;
7929;SDS011;4010;42.698;23.124;2023-07-02T06:35:18;7.03;;;5.93;;
7929;SDS011;4010;42.698;23.124;2023-07-02T06:37:45;7.07;;;5.77;;
7929;SDS011;4010;42.698;23.124;2023-07-02T06:40:12;8.40;;;5.80;;
7929;SDS011;4010;42.698;23.124;2023-07-02T06:42:39;7.40;;;5.40;;
7929;SDS011;4010;42.698;23.124;2023-07-02T06:45:07;6.00;;;5.47;;
7929;SDS011;4010;42.698;23.124;2023-07-02T06:47:35;5.93;;;5.30;;
7929;SDS011;4010;42.698;23.124;2023-07-02T06:50:02;6.33;;;5.73;;
7929;SDS011;4010;42.698;23.124;2023-07-02T06:52:29;5.60;;;5.10;;
7929;SDS011;4010;42.698;23.124;2023-07-02T06:54:56;6.23;;;5.63;;
7929;SDS011;4010;42.698;23.124;2023-07-02T06:57:23;7.37;;;5.47;;
7929;SDS011;4010;42.698;23.124;2023-07-02T06:59:49;4.80;;;4.37;;
7929;SDS011;4010;42.698;23.124;2023-07-02T07:02:16;4.90;;;4.50;;
7929;SDS011;4010;42.698;23.124;2023-07-02T07:04:44;5.20;;;4.70;;
7929;SDS011;4010;42.698;23.124;2023-07-02T07:07:11;5.80;;;5.20;;
7929;SDS011;4010;42.698;23.124;2023-07-02T07:09:37;5.33;;;4.90;;
7929;SDS011;4010;42.698;23.124;2023-07-02T07:12:04;5.80;;;4.57;;
7929;SDS011;4010;42.698;23.124;2023-07-02T07:14:32;6.17;;;4.80;;
7929;SDS011;4010;42.698;23.124;2023-07-02T07:16:58;5.50;;;4.63;;
7929;SDS011;4010;42.698;23.124;2023-07-02T07:19:25;5.93;;;4.80;;
7929;SDS011;4010;42.698;23.124;2023-07-02T07:21:53;5.50;;;4.93;;
7929;SDS011;4010;42.698;23.124;2023-07-02T07:24:20;6.73;;;5.20;;
7929;SDS011;4010;42.698;23.124;2023-07-02T07:26:46;5.60;;;4.73;;
7929;SDS011;4010;42.698;23.124;2023-07-02T07:29:13;7.57;;;5.10;;
7929;SDS011;4010;42.698;23.124;2023-07-02T07:31:40;6.70;;;4.93;;
7929;SDS011;4010;42.698;23.124;2023-07-02T07:34:07;5.30;;;4.90;;
7929;SDS011;4010;42.698;23.124;2023-07-02T07:36:33;7.83;;;4.83;;
7929;SDS011;4010;42.698;23.124;2023-07-02T07:39:01;7.10;;;5.53;;
7929;SDS011;4010;42.698;23.124;2023-07-02T07:41:28;7.40;;;5.17;;
7929;SDS011;4010;42.698;23.124;2023-07-02T07:43:55;6.07;;;5.20;;
7929;SDS011;4010;42.698;23.124;2023-07-02T07:46:21;7.60;;;5.40;;
7929;SDS011;4010;42.698;23.124;2023-07-02T07:48:48;8.43;;;5.63;;
7929;SDS011;4010;42.698;23.124;2023-07-02T07:51:15;6.50;;;5.00;;
7929;SDS011;4010;42.698;23.124;2023-07-02T07:53:41;6.13;;;4.63;;
7929;SDS011;4010;42.698;23.124;2023-07-02T07:56:09;8.97;;;5.00;;
7929;SDS011;4010;42.698;23.124;2023-07-02T07:58:36;8.30;;;4.73;;
7929;SDS011;4010;42.698;23.124;2023-07-02T08:01:03;6.67;;;5.07;;
7929;SDS011;4010;42.698;23.124;2023-07-02T08:03:30;6.97;;;5.53;;
7929;SDS011;4010;42.698;23.124;2023-07-02T08:05:56;7.20;;;5.20;;
7929;SDS011;4010;42.698;23.124;2023-07-02T08:08:23;7.57;;;5.63;;
7929;SDS011;4010;42.698;23.124;2023-07-02T08:10:50;6.67;;;5.03;;
7929;SDS011;4010;42.698;23.124;2023-07-02T08:13:18;5.70;;;5.17;;
7929;SDS011;4010;42.698;23.124;2023-07-02T08:15:44;5.30;;;4.63;;
7929;SDS011;4010;42.698;23.124;2023-07-02T08:18:11;5.93;;;5.37;;
7929;SDS011;4010;42.698;23.124;2023-07-02T08:20:38;6.77;;;5.07;;
7929;SDS011;4010;42.698;23.124;2023-07-02T08:23:05;8.07;;;4.70;;
7929;SDS011;4010;42.698;23.124;2023-07-02T08:25:32;7.73;;;4.90;;
7929;SDS011;4010;42.698;23.124;2023-07-02T08:27:58;8.67;;;5.10;;
7929;SDS011;4010;42.698;23.124;2023-07-02T08:30:26;7.30;;;5.20;;
7929;SDS011;4010;42.698;23.124;2023-07-02T08:32:53;10.13;;;5.47;;
7929;SDS011;4010;42.698;23.124;2023-07-02T08:35:20;7.20;;;4.77;;
7929;SDS011;4010;42.698;23.124;2023-07-02T08:37:47;7.93;;;5.17;;
7929;SDS011;4010;42.698;23.124;2023-07-02T08:40:17;10.17;;;4.57;;
7929;SDS011;4010;42.698;23.124;2023-07-02T08:42:45;9.90;;;4.53;;
7929;SDS011;4010;42.698;23.124;2023-07-02T08:45:13;5.77;;;4.17;;
7929;SDS011;4010;42.698;23.124;2023-07-02T08:47:42;4.87;;;4.20;;
7929;SDS011;4010;42.698;23.124;2023-07-02T08:50:10;6.50;;;4.37;;
7929;SDS011;4010;42.698;23.124;2023-07-02T08:52:38;6.00;;;4.40;;
7929;SDS011;4010;42.698;23.124;2023-07-02T08:55:05;5.10;;;3.93;;
7929;SDS011;4010;42.698;23.124;2023-07-02T08:57:32;6.57;;;3.80;;
7929;SDS011;4010;42.698;23.124;2023-07-02T09:00:03;4.20;;;3.80;;
7929;SDS011;4010;42.698;23.124;2023-07-02T09:02:32;4.00;;;3.60;;
7929;SDS011;4010;42.698;23.124;2023-07-02T09:05:01;5.80;;;4.20;;
7929;SDS011;4010;42.698;23.124;2023-07-02T09:07:28;8.43;;;4.20;;
7929;SDS011;4010;42.698;23.124;2023-07-02T09:09:56;6.30;;;4.30;;
7929;SDS011;4010;42.698;23.124;2023-07-02T09:12:24;6.27;;;4.17;;
7929;SDS011;4010;42.698;23.124;2023-07-02T09:14:55;7.20;;;3.90;;
7929;SDS011;4010;42.698;23.124;2023-07-02T09:17:26;4.60;;;4.20;;
7929;SDS011;4010;42.698;23.124;2023-07-02T09:19:54;6.27;;;4.13;;
7929;SDS011;4010;42.698;23.124;2023-07-02T09:22:23;6.00;;;4.60;;
7929;SDS011;4010;42.698;23.124;2023-07-02T09:24:52;7.20;;;4.53;;
7929;SDS011;4010;42.698;23.124;2023-07-02T09:27:20;4.50;;;4.10;;
7929;SDS011;4010;42.698;23.124;2023-07-02T09:29:50;4.63;;;4.10;;
7929;SDS011;4010;42.698;23.124;2023-07-02T09:32:23;4.80;;;4.13;;
7929;SDS011;4010;42.698;23.124;2023-07-02T09:34:51;4.77;;;4.37;;
7929;SDS011;4010;42.698;23.124;2023-07-02T09:37:20;4.90;;;4.50;;
7929;SDS011;4010;42.698;23.124;2023-07-02T09:39:49;5.57;;;5.07;;
7929;SDS011;4010;42.698;23.124;2023-07-02T09:42:17;4.23;;;3.83;;
7929;SDS011;4010;42.698;23.124;2023-07-02T09:44:45;6.70;;;4.03;;
7929;SDS011;4010;42.698;23.124;2023-07-02T09:47:12;4.53;;;3.70;;
7929;SDS011;4010;42.698;23.124;2023-07-02T09:49:41;6.57;;;4.13;;
7929;SDS011;4010;42.698;23.124;2023-07-02T09:52:10;4.17;;;3.77;;
7929;SDS011;4010;42.698;23.124;2023-07-02T09:54:38;4.90;;;3.90;;
7929;SDS011;4010;42.698;23.124;2023-07-02T09:57:06;5.00;;;3.53;;
7929;SDS011;4010;42.698;23.124;2023-07-02T09:59:33;4.20;;;3.80;;
7929;SDS011;4010;42.698;23.124;2023-07-02T10:02:00;4.37;;;3.93;;
7929;SDS011;4010;42.698;23.124;2023-07-02T10:04:27;4.80;;;4.30;;
7929;SDS011;4010;42.698;23.124;2023-07-02T10:06:54;8.27;;;4.63;;
7929;SDS011;4010;42.698;23.124;2023-07-02T10:09:34;7.17;;;4.20;;
7929;SDS011;4010;42.698;23.124;2023-07-02T10:12:02;4.27;;;3.87;;
7929;SDS011;4010;42.698;23.124;2023-07-02T10:14:42;5.87;;;4.00;;
7929;SDS011;4010;42.698;23.124;2023-07-02T10:17:10;4.80;;;4.30;;
7929;SDS011;4010;42.698;23.124;2023-07-02T10:19:36;5.17;;;4.50;;
7929;SDS011;4010;42.698;23.124;2023-07-02T10:22:04;5.47;;;4.70;;
7929;SDS011;4010;42.698;23.124;2023-07-02T10:24:33;5.13;;;4.23;;
7929;SDS011;4010;42.698;23.124;2023-07-02T10:27:00;8.43;;;4.60;;
7929;SDS011;4010;42.698;23.124;2023-07-02T10:29:29;6.07;;;4.73;;
7929;SDS011;4010;42.698;23.124;2023-07-02T10:31:56;5.07;;;4.67;;
7929;SDS011;4010;42.698;23.124;2023-07-02T10:34:31;5.43;;;4.90;;
7929;SDS011;4010;42.698;23.124;2023-07-02T10:36:59;5.40;;;4.80;;
7929;SDS011;4010;42.698;23.124;2023-07-02T10:39:26;5.30;;;4.80;;
7929;SDS011;4010;42.698;23.124;2023-07-02T10:42:03;6.53;;;4.33;;
7929;SDS011;4010;42.698;23.124;2023-07-02T10:44:31;7.47;;;4.80;;
7929;SDS011;4010;42.698;23.124;2023-07-02T10:46:58;6.70;;;4.90;;
7929;SDS011;4010;42.698;23.124;2023-07-02T10:49:29;8.73;;;5.67;;
7929;SDS011;4010;42.698;23.124;2023-07-02T10:51:57;9.73;;;5.00;;
7929;SDS011;4010;42.698;23.124;2023-07-02T10:54:24;13.53;;;5.53;;
7929;SDS011;4010;42.698;23.124;2023-07-02T10:56:55;6.47;;;5.17;;
7929;SDS011;4010;42.698;23.124;2023-07-02T10:59:23;5.90;;;5.40;;
7929;SDS011;4010;42.698;23.124;2023-07-02T11:01:52;6.27;;;5.63;;
7929;SDS011;4010;42.698;23.124;2023-07-02T11:04:20;6.43;;;5.37;;
7929;SDS011;4010;42.698;23.124;2023-07-02T11:06:47;6.13;;;5.40;;
7929;SDS011;4010;42.698;23.124;2023-07-02T11:09:17;6.13;;;5.63;;
7929;SDS011;4010;42.698;23.124;2023-07-02T11:11:49;6.70;;;6.00;;
7929;SDS011;4010;42.698;23.124;2023-07-02T11:14:26;5.70;;;5.10;;
7929;SDS011;4010;42.698;23.124;2023-07-02T11:16:55;10.17;;;5.10;;
7929;SDS011;4010;42.698;23.124;2023-07-02T11:19:23;5.30;;;4.80;;
7929;SDS011;4010;42.698;23.124;2023-07-02T11:21:50;10.00;;;4.43;;
7929;SDS011;4010;42.698;23.124;2023-07-02T11:24:26;5.57;;;3.90;;
7929;SDS011;4010;42.698;23.124;2023-07-02T11:26:54;5.13;;;3.93;;
7929;SDS011;4010;42.698;23.124;2023-07-02T11:29:21;4.20;;;3.80;;
7929;SDS011;4010;42.698;23.124;2023-07-02T11:31:47;4.80;;;4.33;;
7929;SDS011;4010;42.698;23.124;2023-07-02T11:34:16;7.03;;;4.30;;
7929;SDS011;4010;42.698;23.124;2023-07-02T11:36:43;4.40;;;4.07;;
7929;SDS011;4010;42.698;23.124;2023-07-02T11:39:10;5.60;;;4.03;;
7929;SDS011;4010;42.698;23.124;2023-07-02T11:41:37;7.50;;;4.53;;
7929;SDS011;4010;42.698;23.124;2023-07-02T11:44:04;5.73;;;4.90;;
7929;SDS011;4010;42.698;23.124;2023-07-02T11:46:31;5.93;;;5.43;;
7929;SDS011;4010;42.698;23.124;2023-07-02T11:48:58;5.03;;;4.33;;
7929;SDS011;4010;42.698;23.124;2023-07-02T11:51:27;6.03;;;4.63;;
7929;SDS011;4010;42.698;23.124;2023-07-02T11:53:53;7.07;;;5.20;;
7929;SDS011;4010;42.698;23.124;2023-07-02T11:56:20;6.10;;;4.70;;
7929;SDS011;4010;42.698;23.124;2023-07-02T11:58:47;5.77;;;4.30;;
7929;SDS011;4010;42.698;23.124;2023-07-02T12:01:13;6.57;;;4.90;;
7929;SDS011;4010;42.698;23.124;2023-07-02T12:03:40;6.40;;;4.70;;
7929;SDS011;4010;42.698;23.124;2023-07-02T12:06:07;6.40;;;4.63;;
7929;SDS011;4010;42.698;23.124;2023-07-02T12:08:35;6.03;;;5.43;;
7929;SDS011;4010;42.698;23.124;2023-07-02T12:11:01;6.53;;;5.73;;
7929;SDS011;4010;42.698;23.124;2023-07-02T12:13:28;6.53;;;5.10;;
7929;SDS011;4010;42.698;23.124;2023-07-02T12:15:55;6.07;;;5.57;;
7929;SDS011;4010;42.698;23.124;2023-07-02T12:18:22;7.87;;;6.03;;
7929;SDS011;4010;42.698;23.124;2023-07-02T12:20:48;7.00;;;6.40;;
7929;SDS011;4010;42.698;23.124;2023-07-02T12:23:15;6.73;;;6.03;;
7929;SDS011;4010;42.698;23.124;2023-07-02T12:25:43;6.90;;;5.97;;
7929;SDS011;4010;42.698;23.124;2023-07-02T12:28:10;7.17;;;6.47;;
7929;SDS011;4010;42.698;23.124;2023-07-02T12:30:36;6.40;;;5.90;;
7929;SDS011;4010;42.698;23.124;2023-07-02T12:33:03;6.33;;;5.77;;
7929;SDS011;4010;42.698;23.124;2023-07-02T12:35:30;6.67;;;6.07;;
7929;SDS011;4010;42.698;23.124;2023-07-02T12:37:56;7.90;;;5.80;;
7929;SDS011;4010;42.698;23.124;2023-07-02T12:40:23;6.93;;;6.23;;
7929;SDS011;4010;42.698;23.124;2023-07-02T12:42:51;7.93;;;6.60;;
7929;SDS011;4010;42.698;23.124;2023-07-02T12:45:18;6.33;;;5.73;;
7929;SDS011;4010;42.698;23.124;2023-07-02T12:47:44;6.90;;;6.10;;
7929;SDS011;4010;42.698;23.124;2023-07-02T12:50:11;7.60;;;6.90;;
7929;SDS011;4010;42.698;23.124;2023-07-02T12:52:38;7.93;;;6.87;;
7929;SDS011;4010;42.698;23.124;2023-07-02T12:55:04;7.77;;;7.03;;
7929;SDS011;4010;42.698;23.124;2023-07-02T12:57:32;9.10;;;6.70;;
7929;SDS011;4010;42.698;23.124;2023-07-02T13:00:00;9.43;;;6.53;;
7929;SDS011;4010;42.698;23.124;2023-07-02T13:02:26;7.97;;;7.00;;
7929;SDS011;4010;42.698;23.124;2023-07-02T13:04:53;6.70;;;6.10;;
7929;SDS011;4010;42.698;23.124;2023-07-02T13:07:20;6.90;;;6.20;;
7929;SDS011;4010;42.698;23.124;2023-07-02T13:09:48;6.83;;;6.10;;
7929;SDS011;4010;42.698;23.124;2023-07-02T13:12:15;8.17;;;6.43;;
7929;SDS011;4010;42.698;23.124;2023-07-02T13:14:42;7.07;;;5.70;;
7929;SDS011;4010;42.698;23.124;2023-07-02T13:17:10;6.43;;;5.80;;
7929;SDS011;4010;42.698;23.124;2023-07-02T13:19:37;6.33;;;5.63;;
7929;SDS011;4010;42.698;23.124;2023-07-02T13:22:03;7.70;;;6.03;;
7929;SDS011;4010;42.698;23.124;2023-07-02T13:24:32;6.77;;;6.17;;
7929;SDS011;4010;42.698;23.124;2023-07-02T13:27:01;6.83;;;6.20;;
7929;SDS011;4010;42.698;23.124;2023-07-02T13:29:30;8.87;;;6.57;;
7929;SDS011;4010;42.698;23.124;2023-07-02T13:31:57;7.00;;;6.37;;
7929;SDS011;4010;42.698;23.124;2023-07-02T13:34:25;7.73;;;6.60;;
7929;SDS011;4010;42.698;23.124;2023-07-02T13:36:52;7.30;;;6.47;;
7929;SDS011;4010;42.698;23.124;2023-07-02T13:39:18;9.17;;;7.50;;
7929;SDS011;4010;42.698;23.124;2023-07-02T13:41:45;7.73;;;7.03;;
7929;SDS011;4010;42.698;23.124;2023-07-02T13:44:12;7.60;;;6.83;;
7929;SDS011;4010;42.698;23.124;2023-07-02T13:46:40;7.83;;;7.03;;
7929;SDS011;4010;42.698;23.124;2023-07-02T13:49:09;7.63;;;6.87;;
7929;SDS011;4010;42.698;23.124;2023-07-02T13:51:37;8.90;;;6.47;;
7929;SDS011;4010;42.698;23.124;2023-07-02T13:54:03;7.80;;;7.10;;
7929;SDS011;4010;42.698;23.124;2023-07-02T13:56:30;7.87;;;7.17;;
7929;SDS011;4010;42.698;23.124;2023-07-02T13:59:02;7.57;;;6.80;;
7929;SDS011;4010;42.698;23.124;2023-07-02T14:01:30;8.13;;;7.33;;
7929;SDS011;4010;42.698;23.124;2023-07-02T14:03:57;7.43;;;6.73;;
7929;SDS011;4010;42.698;23.124;2023-07-02T14:06:24;9.03;;;7.50;;
7929;SDS011;4010;42.698;23.124;2023-07-02T14:08:51;9.93;;;7.70;;
7929;SDS011;4010;42.698;23.124;2023-07-02T14:11:18;11.90;;;7.63;;
7929;SDS011;4010;42.698;23.124;2023-07-02T14:13:45;13.10;;;8.00;;
7929;SDS011;4010;42.698;23.124;2023-07-02T14:16:13;9.07;;;8.13;;
7929;SDS011;4010;42.698;23.124;2023-07-02T14:18:39;9.27;;;7.80;;
7929;SDS011;4010;42.698;23.124;2023-07-02T14:21:06;9.00;;;7.87;;
7929;SDS011;4010;42.698;23.124;2023-07-02T14:23:33;8.80;;;7.93;;
7929;SDS011;4010;42.698;23.124;2023-07-02T14:25:59;9.60;;;8.13;;
7929;SDS011;4010;42.698;23.124;2023-07-02T14:28:26;8.17;;;7.37;;
7929;SDS011;4010;42.698;23.124;2023-07-02T14:30:57;8.60;;;7.67;;
7929;SDS011;4010;42.698;23.124;2023-07-02T14:33:26;9.50;;;7.67;;
7929;SDS011;4010;42.698;23.124;2023-07-02T14:35:54;9.57;;;7.37;;
7929;SDS011;4010;42.698;23.124;2023-07-02T14:38:21;8.57;;;7.73;;
7929;SDS011;4010;42.698;23.124;2023-07-02T14:40:48;8.23;;;7.43;;
7929;SDS011;4010;42.698;23.124;2023-07-02T14:43:15;9.27;;;7.70;;
7929;SDS011;4010;42.698;23.124;2023-07-02T14:45:43;8.47;;;7.67;;
7929;SDS011;4010;42.698;23.124;2023-07-02T14:48:11;8.47;;;7.67;;
7929;SDS011;4010;42.698;23.124;2023-07-02T14:50:42;8.47;;;7.60;;
7929;SDS011;4010;42.698;23.124;2023-07-02T14:53:10;10.20;;;8.40;;
7929;SDS011;4010;42.698;23.124;2023-07-02T14:55:36;8.17;;;7.37;;
7929;SDS011;4010;42.698;23.124;2023-07-02T14:58:03;8.57;;;7.70;;